createdAt,value
2022-09-03T00:00:13.374Z,65.88
2022-09-03T00:01:12.984Z,65.99
2022-09-03T00:02:13.021Z,65.88
2022-09-03T00:03:13.034Z,65.88
2022-09-03T00:04:12.933Z,66.08
2022-09-03T00:05:13.360Z,65.99
2022-09-03T00:06:12.915Z,66.19
2022-09-03T00:07:12.904Z,66.08
2022-09-03T00:08:12.892Z,66.39
2022-09-03T00:09:12.882Z,66.59
2022-09-03T00:10:12.886Z,66.49
2022-09-03T00:11:13.275Z,66.19
2022-09-03T00:12:12.833Z,66.29
2022-09-03T00:13:12.833Z,66.08
2022-09-03T00:14:12.945Z,65.99
2022-09-03T00:15:12.802Z,65.68
2022-09-03T00:16:13.228Z,65.48
2022-09-03T00:17:12.771Z,65.38
2022-09-03T00:18:12.751Z,65.35
2022-09-03T00:19:12.749Z,65.55
2022-09-03T00:20:12.745Z,65.65
2022-09-03T00:21:13.164Z,65.88
2022-09-03T00:22:12.702Z,66.08
2022-09-03T00:23:12.689Z,66.29
2022-09-03T00:24:14.194Z,66.49
2022-09-03T00:25:12.665Z,66.79
2022-09-03T00:26:13.064Z,66.79
2022-09-03T00:27:12.639Z,66.89
2022-09-03T00:28:12.620Z,66.59
2022-09-03T00:29:12.610Z,66.59
2022-09-03T00:30:12.833Z,66.59
2022-09-03T00:31:12.972Z,66.49
2022-09-03T00:32:12.582Z,66.59
2022-09-03T00:33:12.552Z,66.79
2022-09-03T00:34:12.548Z,66.49
2022-09-03T00:35:12.529Z,66.69
2022-09-03T00:36:12.968Z,66.69
2022-09-03T00:37:15.633Z,66.69
2022-09-03T00:38:12.488Z,66.69
2022-09-03T00:39:12.468Z,66.39
2022-09-03T00:40:12.498Z,66.49
2022-09-03T00:41:12.869Z,66.29
2022-09-03T00:42:12.440Z,66.19
2022-09-03T00:43:12.435Z,66.08
2022-09-03T00:44:12.429Z,66.08
2022-09-03T00:45:12.467Z,65.88
2022-09-03T00:46:12.769Z,66.08
2022-09-03T00:47:12.376Z,65.99
2022-09-03T00:48:12.358Z,66.08
2022-09-03T00:49:13.348Z,66.29
2022-09-03T00:50:12.334Z,66.49
2022-09-03T00:51:12.743Z,66.59
2022-09-03T00:52:12.306Z,66.89
2022-09-03T00:53:12.297Z,66.89
2022-09-03T00:54:12.279Z,67.10
2022-09-03T00:55:12.266Z,66.93
2022-09-03T00:56:12.614Z,66.93
2022-09-03T00:57:12.236Z,67.23
2022-09-03T00:58:12.237Z,67.33
2022-09-03T00:59:12.217Z,67.33
2022-09-03T01:00:12.197Z,67.33
2022-09-03T01:01:12.646Z,67.23
2022-09-03T01:02:12.363Z,67.23
2022-09-03T01:03:12.167Z,67.33
2022-09-03T01:04:12.173Z,67.23
2022-09-03T01:05:12.126Z,67.33
2022-09-03T01:06:12.540Z,67.19
2022-09-03T01:07:12.104Z,67.10
2022-09-03T01:08:12.098Z,67.30
2022-09-03T01:09:12.071Z,67.10
2022-09-03T01:10:12.064Z,66.89
2022-09-03T01:11:12.469Z,66.99
2022-09-03T01:12:12.034Z,67.10
2022-09-03T01:13:12.029Z,66.99
2022-09-03T01:14:12.003Z,66.89
2022-09-03T01:15:11.997Z,66.79
2022-09-03T01:16:12.581Z,66.99
2022-09-03T01:17:11.963Z,66.89
2022-09-03T01:18:11.952Z,66.59
2022-09-03T01:19:11.941Z,66.49
2022-09-03T01:20:11.943Z,67.10
2022-09-03T01:21:12.343Z,66.79
2022-09-03T01:22:11.899Z,66.59
2022-09-03T01:23:11.884Z,66.49
2022-09-03T01:24:11.871Z,66.59
2022-09-03T01:25:11.853Z,66.89
2022-09-03T01:26:12.283Z,66.99
2022-09-03T01:27:11.832Z,66.89
2022-09-03T01:28:11.818Z,67.10
2022-09-03T01:29:11.803Z,67.19
2022-09-03T01:30:11.802Z,67.30
2022-09-03T01:31:12.191Z,67.70
2022-09-03T01:32:11.768Z,67.83
2022-09-03T01:33:11.750Z,67.73
2022-09-03T01:34:11.739Z,67.63
2022-09-03T01:35:11.723Z,67.53
2022-09-03T01:36:12.088Z,67.73
2022-09-03T01:37:11.697Z,67.83
2022-09-03T01:38:11.687Z,67.63
2022-09-03T01:39:11.669Z,67.63
2022-09-03T01:40:11.675Z,68.04
2022-09-03T01:41:11.639Z,68.24
2022-09-03T01:42:11.992Z,68.33
2022-09-03T01:43:11.616Z,68.64
2022-09-03T01:44:11.611Z,69.04
2022-09-03T01:45:11.589Z,69.15
2022-09-03T01:46:11.611Z,69.65
2022-09-03T01:47:13.246Z,70.66
2022-09-03T01:48:11.557Z,70.76
2022-09-03T01:49:11.540Z,70.36
2022-09-03T01:50:11.531Z,70.06
2022-09-03T01:51:11.510Z,69.75
2022-09-03T01:52:11.918Z,69.85
2022-09-03T01:53:11.490Z,69.89
2022-09-03T01:54:20.761Z,69.98
2022-09-03T01:55:12.459Z,70.59
2022-09-03T01:56:11.448Z,70.79
2022-09-03T01:57:12.841Z,71.50
2022-09-03T01:58:12.428Z,71.60
2022-09-03T01:59:11.416Z,71.80
2022-09-03T02:00:11.397Z,71.70
2022-09-03T02:01:11.449Z,71.60
2022-09-03T02:02:11.799Z,71.70
2022-09-03T02:03:11.349Z,71.70
2022-09-03T02:04:11.345Z,72.61
2022-09-03T02:05:11.327Z,73.11
2022-09-03T02:06:11.327Z,72.81
2022-09-03T02:07:11.676Z,72.91
2022-09-03T02:08:11.575Z,72.91
2022-09-03T02:09:11.276Z,72.91
2022-09-03T02:10:11.265Z,72.95
2022-09-03T02:11:11.248Z,73.05
2022-09-03T02:12:11.678Z,73.96
2022-09-03T02:13:11.223Z,74.06
2022-09-03T02:14:11.226Z,73.96
2022-09-03T02:15:11.194Z,74.66
2022-09-03T02:16:11.260Z,75.68
2022-09-03T02:17:11.584Z,75.98
2022-09-03T02:18:11.162Z,76.08
2022-09-03T02:19:11.141Z,76.28
2022-09-03T02:20:11.134Z,75.88
2022-09-03T02:21:11.114Z,76.62
2022-09-03T02:22:11.542Z,76.82
2022-09-03T02:23:11.092Z,77.03
2022-09-03T02:24:11.074Z,77.13
2022-09-03T02:25:11.066Z,77.73
2022-09-03T02:26:11.055Z,77.73
2022-09-03T02:27:11.432Z,77.94
2022-09-03T02:28:17.036Z,78.14
2022-09-03T02:29:12.003Z,78.55
2022-09-03T02:30:11.003Z,78.55
2022-09-03T02:31:11.082Z,78.38
2022-09-03T02:32:11.310Z,78.88
2022-09-03T02:33:10.956Z,79.29
2022-09-03T02:34:10.941Z,79.79
2022-09-03T02:35:10.924Z,80.30
2022-09-03T02:36:10.923Z,80.40
2022-09-03T02:37:11.323Z,80.34
2022-09-03T02:38:10.894Z,80.34
2022-09-03T02:39:10.879Z,79.93
2022-09-03T02:40:10.958Z,79.93
2022-09-03T02:41:10.850Z,80.34
2022-09-03T02:42:11.211Z,80.13
2022-09-03T02:43:10.811Z,79.63
2022-09-03T02:44:10.807Z,79.22
2022-09-03T02:45:10.790Z,79.22
2022-09-03T02:46:10.815Z,79.22
2022-09-03T02:47:11.188Z,79.13
2022-09-03T02:48:10.750Z,79.02
2022-09-03T02:49:10.733Z,79.13
2022-09-03T02:50:10.719Z,78.82
2022-09-03T02:51:13.796Z,78.82
2022-09-03T02:52:11.122Z,79.33
2022-09-03T02:53:10.680Z,79.63
2022-09-03T02:54:10.663Z,79.73
2022-09-03T02:55:10.649Z,80.04
2022-09-03T02:56:10.641Z,80.64
2022-09-03T02:57:10.620Z,80.84
2022-09-03T02:58:11.018Z,80.47
2022-09-03T02:59:10.588Z,80.58
2022-09-03T03:00:10.603Z,80.27
2022-09-03T03:01:10.678Z,80.58
2022-09-03T03:02:10.585Z,81.18
2022-09-03T03:03:10.868Z,81.59
2022-09-03T03:04:10.538Z,81.63
2022-09-03T03:05:10.515Z,81.63
2022-09-03T03:06:10.507Z,82.03
2022-09-03T03:07:10.497Z,82.54
2022-09-03T03:08:10.916Z,82.28
2022-09-03T03:09:10.468Z,82.78
2022-09-03T03:10:10.457Z,82.89
2022-09-03T03:11:10.438Z,82.68
2022-09-03T03:12:10.435Z,82.68
2022-09-03T03:13:10.827Z,82.72
2022-09-03T03:14:10.406Z,82.31
2022-09-03T03:15:10.386Z,82.21
2022-09-03T03:16:10.376Z,82.82
2022-09-03T03:17:10.357Z,82.42
2022-09-03T03:18:10.734Z,82.72
2022-09-03T03:19:10.335Z,82.42
2022-09-03T03:20:10.326Z,81.91
2022-09-03T03:21:10.318Z,81.81
2022-09-03T03:22:10.295Z,81.50
2022-09-03T03:23:10.705Z,81.30
2022-09-03T03:24:10.274Z,81.50
2022-09-03T03:25:10.256Z,81.81
2022-09-03T03:26:10.243Z,82.86
2022-09-03T03:27:10.243Z,83.12
2022-09-03T03:28:10.643Z,83.12
2022-09-03T03:29:10.205Z,82.82
2022-09-03T03:30:10.193Z,82.62
2022-09-03T03:31:10.259Z,82.25
2022-09-03T03:32:10.170Z,82.15
2022-09-03T03:33:10.533Z,82.45
2022-09-03T03:34:10.142Z,82.76
2022-09-03T03:35:10.122Z,82.96
2022-09-03T03:36:10.122Z,83.17
2022-09-03T03:37:10.103Z,83.26
2022-09-03T03:38:10.426Z,83.17
2022-09-03T03:39:11.359Z,83.47
2022-09-03T03:40:10.062Z,83.71
2022-09-03T03:41:10.043Z,83.20
2022-09-03T03:42:10.034Z,83.81
2022-09-03T03:43:10.456Z,84.01
2022-09-03T03:44:10.002Z,84.22
2022-09-03T03:45:09.995Z,84.42
2022-09-03T03:46:10.022Z,84.63
2022-09-03T03:47:09.970Z,84.63
2022-09-03T03:48:10.385Z,84.52
2022-09-03T03:49:09.933Z,84.52
2022-09-03T03:50:09.939Z,84.63
2022-09-03T03:51:09.911Z,84.72
2022-09-03T03:52:09.899Z,84.72
2022-09-03T03:53:10.249Z,84.63
2022-09-03T03:54:09.868Z,84.87
2022-09-03T03:55:09.859Z,85.07
2022-09-03T03:56:09.854Z,84.97
2022-09-03T03:57:09.838Z,84.97
2022-09-03T03:58:11.529Z,84.77
2022-09-03T03:59:09.799Z,84.97
2022-09-03T04:00:10.468Z,85.07
2022-09-03T04:01:09.867Z,85.27
2022-09-03T04:02:09.830Z,85.07
2022-09-03T04:03:09.769Z,85.07
2022-09-03T04:04:10.067Z,84.87
2022-09-03T04:05:09.735Z,84.66
2022-09-03T04:06:09.727Z,84.42
2022-09-03T04:07:09.693Z,84.52
2022-09-03T04:08:09.684Z,84.63
2022-09-03T04:09:10.097Z,85.03
2022-09-03T04:10:09.653Z,85.84
2022-09-03T04:11:09.645Z,86.25
2022-09-03T04:12:09.632Z,86.25
2022-09-03T04:13:09.605Z,86.82
2022-09-03T04:14:09.997Z,86.61
2022-09-03T04:15:09.588Z,86.41
2022-09-03T04:16:09.618Z,86.21
2022-09-03T04:17:09.543Z,86.10
2022-09-03T04:18:09.543Z,85.80
2022-09-03T04:19:09.976Z,85.70
2022-09-03T04:20:09.512Z,86.10
2022-09-03T04:21:09.505Z,86.41
2022-09-03T04:22:09.492Z,86.41
2022-09-03T04:23:09.474Z,86.51
2022-09-03T04:24:09.842Z,86.61
2022-09-03T04:25:09.443Z,86.21
2022-09-03T04:26:09.433Z,85.39
2022-09-03T04:27:09.422Z,85.36
2022-09-03T04:28:09.403Z,85.56
2022-09-03T04:29:09.938Z,85.76
2022-09-03T04:30:09.382Z,85.86
2022-09-03T04:31:09.417Z,85.66
2022-09-03T04:32:09.356Z,85.56
2022-09-03T04:33:09.332Z,84.75
2022-09-03T04:34:10.672Z,83.73
2022-09-03T04:35:09.313Z,83.63
2022-09-03T04:36:09.303Z,83.63
2022-09-03T04:37:09.292Z,83.73
2022-09-03T04:38:09.272Z,84.04
2022-09-03T04:39:09.672Z,82.92
2022-09-03T04:40:09.262Z,83.12
2022-09-03T04:41:09.231Z,82.17
2022-09-03T04:42:09.228Z,81.77
2022-09-03T04:43:09.214Z,83.09
2022-09-03T04:44:09.522Z,83.18
2022-09-03T04:45:09.190Z,82.89
2022-09-03T04:46:16.067Z,82.98
2022-09-03T04:47:10.160Z,82.89
2022-09-03T04:48:09.142Z,82.68
2022-09-03T04:49:09.439Z,81.97
2022-09-03T04:50:09.119Z,80.55
2022-09-03T04:51:09.118Z,81.06
2022-09-03T04:52:09.089Z,81.37
2022-09-03T04:53:09.109Z,81.57
2022-09-03T04:54:09.510Z,80.65
2022-09-03T04:55:09.058Z,80.45
2022-09-03T04:56:09.038Z,80.52
2022-09-03T04:57:09.058Z,80.31
2022-09-03T04:58:09.008Z,80.21
2022-09-03T04:59:09.370Z,80.72
2022-09-03T05:00:08.988Z,80.82
2022-09-03T05:01:09.064Z,80.01
2022-09-03T05:02:09.004Z,79.91
2022-09-03T05:03:08.947Z,80.82
2022-09-03T05:04:09.322Z,80.92
2022-09-03T05:05:08.928Z,80.41
2022-09-03T05:06:08.901Z,81.23
2022-09-03T05:07:08.886Z,81.32
2022-09-03T05:08:08.892Z,80.62
2022-09-03T05:09:09.206Z,80.82
2022-09-03T05:10:08.858Z,81.02
2022-09-03T05:11:08.845Z,80.31
2022-09-03T05:12:08.823Z,80.52
2022-09-03T05:13:08.820Z,80.82
2022-09-03T05:14:09.170Z,80.82
2022-09-03T05:15:08.785Z,80.31
2022-09-03T05:16:08.810Z,80.92
2022-09-03T05:17:08.755Z,80.92
2022-09-03T05:18:08.745Z,80.62
2022-09-03T05:19:09.156Z,80.72
2022-09-03T05:20:08.719Z,80.92
2022-09-03T05:21:08.694Z,80.82
2022-09-03T05:22:08.681Z,80.47
2022-09-03T05:23:08.664Z,80.52
2022-09-03T05:24:08.965Z,80.58
2022-09-03T05:25:08.644Z,80.58
2022-09-03T05:26:08.623Z,80.47
2022-09-03T05:27:08.615Z,80.38
2022-09-03T05:28:08.596Z,80.78
2022-09-03T05:29:09.023Z,80.78
2022-09-03T05:30:08.574Z,79.87
2022-09-03T05:31:08.565Z,80.38
2022-09-03T05:32:08.545Z,79.77
2022-09-03T05:33:08.534Z,79.67
2022-09-03T05:34:08.904Z,79.16
2022-09-03T05:35:08.521Z,79.06
2022-09-03T05:36:08.494Z,79.06
2022-09-03T05:37:08.482Z,79.02
2022-09-03T05:38:08.462Z,79.22
2022-09-03T05:39:08.812Z,79.13
2022-09-03T05:40:08.441Z,79.22
2022-09-03T05:41:15.417Z,79.13
2022-09-03T05:42:15.413Z,79.22
2022-09-03T05:43:15.392Z,79.22
2022-09-03T05:44:08.701Z,78.52
2022-09-03T05:45:08.376Z,78.72
2022-09-03T05:46:15.352Z,77.97
2022-09-03T05:47:15.339Z,77.67
2022-09-03T05:48:16.347Z,77.77
2022-09-03T05:49:08.317Z,77.97
2022-09-03T05:50:08.616Z,78.64
2022-09-03T05:51:08.305Z,78.85
2022-09-03T05:52:08.276Z,80.77
2022-09-03T05:53:08.265Z,81.13
2022-09-03T05:54:08.291Z,80.83
2022-09-03T05:55:12.818Z,80.43
2022-09-03T05:56:08.226Z,80.02
2022-09-03T05:57:08.217Z,79.99
2022-09-03T05:58:08.196Z,79.68
2022-09-03T05:59:08.186Z,79.79
2022-09-03T06:00:08.523Z,78.88
2022-09-03T06:01:08.157Z,78.47
2022-09-03T06:02:08.256Z,77.73
2022-09-03T06:03:08.236Z,77.12
2022-09-03T06:04:08.115Z,76.31
2022-09-03T06:05:08.471Z,76.11
2022-09-03T06:06:08.082Z,75.87
2022-09-03T06:07:08.086Z,77.53
2022-09-03T06:08:08.069Z,78.33
2022-09-03T06:09:08.055Z,78.53
2022-09-03T06:10:08.455Z,78.84
2022-09-03T06:11:08.026Z,78.53
2022-09-03T06:12:08.005Z,78.13
2022-09-03T06:13:08.004Z,78.03
2022-09-03T06:14:07.986Z,76.31
2022-09-03T06:15:08.312Z,76.62
2022-09-03T06:16:08.020Z,76.42
2022-09-03T06:17:07.981Z,76.58
2022-09-03T06:18:07.932Z,76.88
2022-09-03T06:19:07.924Z,77.08
2022-09-03T06:20:08.282Z,77.15
2022-09-03T06:21:07.914Z,75.94
2022-09-03T06:22:07.879Z,76.20
2022-09-03T06:23:07.872Z,76.00
2022-09-03T06:24:07.858Z,76.31
2022-09-03T06:25:08.293Z,76.31
2022-09-03T06:26:07.834Z,76.97
2022-09-03T06:27:07.812Z,77.28
2022-09-03T06:28:07.812Z,76.77
2022-09-03T06:29:07.841Z,77.08
2022-09-03T06:30:08.213Z,76.34
2022-09-03T06:31:07.762Z,75.02
2022-09-03T06:32:07.832Z,74.22
2022-09-03T06:33:07.736Z,73.25
2022-09-03T06:34:07.724Z,72.34
2022-09-03T06:35:08.141Z,72.54
2022-09-03T06:36:08.942Z,72.34
2022-09-03T06:37:07.688Z,72.58
2022-09-03T06:38:07.702Z,73.08
2022-09-03T06:39:08.734Z,73.58
2022-09-03T06:40:07.837Z,73.68
2022-09-03T06:41:07.641Z,73.38
2022-09-03T06:42:07.622Z,73.38
2022-09-03T06:43:07.950Z,73.58
2022-09-03T06:44:07.593Z,73.55
2022-09-03T06:45:07.942Z,73.25
2022-09-03T06:46:07.616Z,73.14
2022-09-03T06:47:07.552Z,72.94
2022-09-03T06:48:07.541Z,72.91
2022-09-03T06:49:07.528Z,73.11
2022-09-03T06:50:07.949Z,72.71
2022-09-03T06:51:07.538Z,72.71
2022-09-03T06:52:07.584Z,72.20
2022-09-03T06:53:07.497Z,72.37
2022-09-03T06:54:07.480Z,72.27
2022-09-03T06:55:07.891Z,72.07
2022-09-03T06:56:07.796Z,72.14
2022-09-03T06:57:07.429Z,70.93
2022-09-03T06:58:07.412Z,70.73
2022-09-03T06:59:07.388Z,71.13
2022-09-03T07:00:07.546Z,71.20
2022-09-03T07:01:07.474Z,71.09
2022-09-03T07:02:07.477Z,71.87
2022-09-03T07:03:07.339Z,70.36
2022-09-03T07:04:07.329Z,70.56
2022-09-03T07:05:07.762Z,70.66
2022-09-03T07:06:07.301Z,71.40
2022-09-03T07:07:07.289Z,71.30
2022-09-03T07:08:07.274Z,71.30
2022-09-03T07:09:07.269Z,71.50
2022-09-03T07:10:07.247Z,71.30
2022-09-03T07:11:07.617Z,71.40
2022-09-03T07:12:07.222Z,71.94
2022-09-03T07:13:07.208Z,72.34
2022-09-03T07:14:07.207Z,72.88
2022-09-03T07:15:07.187Z,72.77
2022-09-03T07:16:07.260Z,73.18
2022-09-03T07:17:07.166Z,73.48
2022-09-03T07:18:07.149Z,73.68
2022-09-03T07:19:07.137Z,73.28
2022-09-03T07:20:07.116Z,72.27
2022-09-03T07:21:07.515Z,72.27
2022-09-03T07:22:07.107Z,72.44
2022-09-03T07:23:07.086Z,72.64
2022-09-03T07:24:07.077Z,72.74
2022-09-03T07:25:07.058Z,72.74
2022-09-03T07:26:07.487Z,72.84
2022-09-03T07:27:07.199Z,72.81
2022-09-03T07:28:07.683Z,72.71
2022-09-03T07:29:06.997Z,72.41
2022-09-03T07:30:06.987Z,72.17
2022-09-03T07:31:07.294Z,71.56
2022-09-03T07:32:07.063Z,71.77
2022-09-03T07:33:14.091Z,72.07
2022-09-03T07:34:13.922Z,71.97
2022-09-03T07:35:17.047Z,71.97
2022-09-03T07:36:14.452Z,71.67
2022-09-03T07:37:13.889Z,71.87
2022-09-03T07:38:13.873Z,72.07
2022-09-03T07:39:06.860Z,71.87
2022-09-03T07:40:06.874Z,71.87
2022-09-03T07:41:07.273Z,72.27
2022-09-03T07:42:06.869Z,71.97
2022-09-03T07:43:06.812Z,72.27
2022-09-03T07:44:06.783Z,72.27
2022-09-03T07:45:06.793Z,71.97
2022-09-03T07:46:07.094Z,71.87
2022-09-03T07:47:06.885Z,71.97
2022-09-03T07:48:06.758Z,71.97
2022-09-03T07:49:06.736Z,71.77
2022-09-03T07:50:06.726Z,71.73
2022-09-03T07:51:06.940Z,71.73
2022-09-03T07:52:06.847Z,71.63
2022-09-03T07:53:07.685Z,70.43
2022-09-03T07:54:06.684Z,70.43
2022-09-03T07:55:06.654Z,69.92
2022-09-03T07:56:07.085Z,70.43
2022-09-03T07:57:06.653Z,70.53
2022-09-03T07:58:06.603Z,70.43
2022-09-03T07:59:06.610Z,71.13
2022-09-03T08:00:06.903Z,71.13
2022-09-03T08:01:07.021Z,71.33
2022-09-03T08:02:08.142Z,71.03
2022-09-03T08:03:06.564Z,71.83
2022-09-03T08:04:06.616Z,70.83
2022-09-03T08:05:06.534Z,71.30
2022-09-03T08:06:06.538Z,71.09
2022-09-03T08:07:19.961Z,71.00
2022-09-03T08:08:15.654Z,70.26
2022-09-03T08:09:16.117Z,69.53
2022-09-03T08:11:37.866Z,68.49
2022-09-03T08:12:48.249Z,68.65
2022-09-03T08:13:47.460Z,68.15
2022-09-03T08:14:45.159Z,68.05
2022-09-03T08:16:46.138Z,67.62
2022-09-03T08:17:46.093Z,66.78
2022-09-03T08:18:46.101Z,66.78
2022-09-03T08:19:46.082Z,66.69
2022-09-03T08:20:46.078Z,67.09
2022-09-03T08:21:46.346Z,65.86
2022-09-03T08:22:54.043Z,64.65
2022-09-03T08:23:53.010Z,64.52
2022-09-03T08:24:45.999Z,64.03
2022-09-03T08:25:46.033Z,64.19
2022-09-03T08:26:51.441Z,64.59
2022-09-03T08:27:46.970Z,64.00
2022-09-03T08:28:45.971Z,63.46
2022-09-03T08:29:45.952Z,63.46
2022-09-03T08:30:45.956Z,63.46
2022-09-03T08:31:46.347Z,63.66
2022-09-03T08:32:46.038Z,63.89
2022-09-03T08:33:45.895Z,64.79
2022-09-03T08:34:45.903Z,65.09
2022-09-03T08:35:45.876Z,65.16
2022-09-03T08:36:46.303Z,65.59
2022-09-03T08:37:45.851Z,65.69
2022-09-03T08:38:45.844Z,65.29
2022-09-03T08:39:45.867Z,65.12
2022-09-03T08:40:52.833Z,65.72
2022-09-03T08:41:53.045Z,65.72
2022-09-03T08:42:53.801Z,65.02
2022-09-03T08:43:52.776Z,65.92
2022-09-03T08:44:45.747Z,66.16
2022-09-03T08:45:45.918Z,67.29
2022-09-03T08:46:46.099Z,67.09
2022-09-03T08:47:45.725Z,67.39
2022-09-03T08:48:45.709Z,67.59
2022-09-03T08:49:45.737Z,67.29
2022-09-03T08:50:45.841Z,67.25
2022-09-03T08:51:45.997Z,67.05
2022-09-03T08:52:45.653Z,66.63
2022-09-03T08:53:45.636Z,66.82
2022-09-03T08:54:45.633Z,66.99
2022-09-03T08:55:45.656Z,65.56
2022-09-03T08:56:46.033Z,64.66
2022-09-03T08:57:45.576Z,65.26
2022-09-03T08:58:45.573Z,65.36
2022-09-03T08:59:45.565Z,65.96
2022-09-03T09:00:45.554Z,65.26
2022-09-03T09:01:46.131Z,65.92
2022-09-03T09:02:45.575Z,67.13
2022-09-03T09:03:45.505Z,66.63
2022-09-03T09:04:45.505Z,67.02
2022-09-03T09:05:45.536Z,66.49
2022-09-03T09:06:45.787Z,66.22
2022-09-03T09:07:45.455Z,67.13
2022-09-03T09:08:45.450Z,67.32
2022-09-03T09:09:45.436Z,65.92
2022-09-03T09:10:45.474Z,66.22
2022-09-03T09:11:45.443Z,65.92
2022-09-03T09:12:46.951Z,66.22
2022-09-03T09:13:45.387Z,65.96
2022-09-03T09:14:45.376Z,64.93
2022-09-03T09:15:45.499Z,64.07
2022-09-03T09:16:45.778Z,63.31
2022-09-03T09:17:45.340Z,61.49
2022-09-03T09:18:45.315Z,62.01
2022-09-03T09:19:45.305Z,62.74
2022-09-03T09:20:45.297Z,63.24
2022-09-03T09:21:45.587Z,62.94
2022-09-03T09:22:47.313Z,63.21
2022-09-03T09:23:45.257Z,62.68
2022-09-03T09:24:45.243Z,61.29
2022-09-03T09:25:45.313Z,61.36
2022-09-03T09:26:45.323Z,60.96
2022-09-03T09:27:45.215Z,61.06
2022-09-03T09:28:45.192Z,61.03
2022-09-03T09:29:45.176Z,59.91
2022-09-03T09:30:45.173Z,59.38
2022-09-03T09:31:45.598Z,57.86
2022-09-03T09:32:45.162Z,57.96
2022-09-03T09:33:45.137Z,57.83
2022-09-03T09:34:49.872Z,57.51
2022-09-03T09:35:46.098Z,56.59
2022-09-03T09:36:45.132Z,56.38
2022-09-03T09:37:45.434Z,56.56
2022-09-03T09:38:45.063Z,56.95
2022-09-03T09:39:45.076Z,56.36
2022-09-03T09:40:45.541Z,56.04
2022-09-03T09:41:45.257Z,54.82
2022-09-03T09:42:45.012Z,54.42
2022-09-03T09:43:45.009Z,54.55
2022-09-03T09:44:45.003Z,54.94
2022-09-03T09:45:44.960Z,55.15
2022-09-03T09:46:45.517Z,55.64
2022-09-03T09:47:44.944Z,57.03
2022-09-03T09:48:45.632Z,56.04
2022-09-03T09:49:44.926Z,55.41
2022-09-03T09:50:44.935Z,54.62
2022-09-03T09:51:45.253Z,54.85
2022-09-03T09:52:44.874Z,55.87
2022-09-03T09:53:44.879Z,56.29
2022-09-03T09:54:44.858Z,57.11
2022-09-03T09:55:44.855Z,57.73
2022-09-03T09:56:44.836Z,57.24
2022-09-03T09:57:45.255Z,57.36
2022-09-03T09:58:44.804Z,57.83
2022-09-03T09:59:44.795Z,57.60
2022-09-03T10:00:44.789Z,57.31
2022-09-03T10:01:45.271Z,57.48
2022-09-03T10:02:44.819Z,56.74
2022-09-03T10:03:44.750Z,57.17
2022-09-03T10:04:44.733Z,57.69
2022-09-03T10:05:44.716Z,58.41
2022-09-03T10:06:44.702Z,59.41
2022-09-03T10:07:45.198Z,58.81
2022-09-03T10:08:44.679Z,59.31
2022-09-03T10:09:44.853Z,59.51
2022-09-03T10:10:44.666Z,59.31
2022-09-03T10:11:44.988Z,59.01
2022-09-03T10:12:44.637Z,58.91
2022-09-03T10:13:44.627Z,58.91
2022-09-03T10:14:44.596Z,58.61
2022-09-03T10:15:44.786Z,58.75
2022-09-03T10:16:44.949Z,57.64
2022-09-03T10:17:44.575Z,58.00
2022-09-03T10:18:44.561Z,57.51
2022-09-03T10:19:44.546Z,56.29
2022-09-03T10:20:44.545Z,55.40
2022-09-03T10:21:44.556Z,55.07
2022-09-03T10:22:48.351Z,55.29
2022-09-03T10:23:45.495Z,55.49
2022-09-03T10:24:44.476Z,55.66
2022-09-03T10:25:44.471Z,55.07
2022-09-03T10:26:44.619Z,54.75
2022-09-03T10:27:44.466Z,55.04
2022-09-03T10:28:44.437Z,54.97
2022-09-03T10:29:44.443Z,55.57
2022-09-03T10:30:44.473Z,55.27
2022-09-03T10:31:45.202Z,55.47
2022-09-03T10:32:48.325Z,55.07
2022-09-03T10:33:44.958Z,56.06
2022-09-03T10:34:44.437Z,55.34
2022-09-03T10:35:48.916Z,54.97
2022-09-03T10:36:45.528Z,55.57
2022-09-03T10:37:44.401Z,54.45
2022-09-03T10:38:44.530Z,54.75
2022-09-03T10:39:46.716Z,54.92
2022-09-03T10:40:44.267Z,54.00
2022-09-03T10:41:52.084Z,54.89
2022-09-03T10:42:44.245Z,54.47
2022-09-03T10:43:57.547Z,54.17
2022-09-03T10:44:51.218Z,54.27
2022-09-03T10:45:52.409Z,53.90
2022-09-03T10:46:52.308Z,55.32
2022-09-03T10:47:52.198Z,54.99
2022-09-03T10:48:51.183Z,54.99
2022-09-03T10:49:52.141Z,54.69
2022-09-03T10:50:52.171Z,54.30
2022-09-03T10:51:49.252Z,54.82
2022-09-03T10:52:45.130Z,55.32
2022-09-03T10:53:51.121Z,55.24
2022-09-03T10:54:44.091Z,55.74
2022-09-03T10:55:44.101Z,55.54
2022-09-03T10:56:44.063Z,55.94
2022-09-03T10:57:44.372Z,55.64
2022-09-03T10:58:44.045Z,55.34
2022-09-03T10:59:44.039Z,56.93
2022-09-03T11:00:44.014Z,55.74
2022-09-03T11:01:44.541Z,55.61
2022-09-03T11:02:44.080Z,54.52
2022-09-03T11:03:43.972Z,55.58
2022-09-03T11:04:43.986Z,54.89
2022-09-03T11:05:43.944Z,54.69
2022-09-03T11:06:44.042Z,53.70
2022-09-03T11:07:44.429Z,55.09
2022-09-03T11:08:44.021Z,54.07
2022-09-03T11:09:43.909Z,53.97
2022-09-03T11:10:50.896Z,54.37
2022-09-03T11:11:50.931Z,53.78
2022-09-03T11:12:53.053Z,54.69
2022-09-03T11:13:50.856Z,55.29
2022-09-03T11:14:51.855Z,54.89
2022-09-03T11:15:43.860Z,54.89
2022-09-03T11:16:50.850Z,54.39
2022-09-03T11:17:43.807Z,54.20
2022-09-03T11:18:50.774Z,54.79
2022-09-03T11:19:43.782Z,55.78
2022-09-03T11:20:43.776Z,54.72
2022-09-03T11:21:43.782Z,56.08
2022-09-03T11:22:43.745Z,55.58
2022-09-03T11:23:43.749Z,56.68
2022-09-03T11:24:43.753Z,54.57
2022-09-03T11:25:43.951Z,54.96
2022-09-03T11:26:44.104Z,55.19
2022-09-03T11:27:43.734Z,55.29
2022-09-03T11:28:43.654Z,55.29
2022-09-03T11:29:43.655Z,54.99
2022-09-03T11:30:43.667Z,55.39
2022-09-03T11:31:44.065Z,55.68
2022-09-03T11:32:43.642Z,55.68
2022-09-03T11:33:43.607Z,55.98
2022-09-03T11:34:43.582Z,56.70
2022-09-03T11:35:43.583Z,57.13
2022-09-03T11:36:47.787Z,56.83
2022-09-03T11:37:43.577Z,56.66
2022-09-03T11:38:43.532Z,57.38
2022-09-03T11:39:43.563Z,57.28
2022-09-03T11:40:43.504Z,57.98
2022-09-03T11:41:43.934Z,58.00
2022-09-03T11:42:43.485Z,58.13
2022-09-03T11:43:43.480Z,58.56
2022-09-03T11:44:51.019Z,59.08
2022-09-03T11:45:44.511Z,59.78
2022-09-03T11:46:43.771Z,60.60
2022-09-03T11:47:43.433Z,60.90
2022-09-03T11:48:43.414Z,60.83
2022-09-03T11:49:43.394Z,61.23
2022-09-03T11:50:43.384Z,62.05
2022-09-03T11:51:43.606Z,61.96
2022-09-03T11:52:43.367Z,62.75
2022-09-03T11:53:43.353Z,63.58
2022-09-03T11:54:43.334Z,63.68
2022-09-03T11:55:43.873Z,63.78
2022-09-03T11:56:43.322Z,64.51
2022-09-03T11:57:43.338Z,64.81
2022-09-03T11:58:43.293Z,64.90
2022-09-03T11:59:43.283Z,65.73
2022-09-03T12:00:43.288Z,66.03
2022-09-03T12:01:43.603Z,65.94
2022-09-03T12:02:43.280Z,66.47
2022-09-03T12:03:43.244Z,66.96
2022-09-03T12:04:43.273Z,67.76
2022-09-03T12:05:43.202Z,67.96
2022-09-03T12:06:43.173Z,69.16
2022-09-03T12:07:43.501Z,70.09
2022-09-03T12:08:43.153Z,72.59
2022-09-03T12:09:43.765Z,74.38
2022-09-03T12:10:43.131Z,77.72
2022-09-03T12:11:43.483Z,76.02
2022-09-03T12:12:43.093Z,76.95
2022-09-03T12:13:43.105Z,77.79
2022-09-03T12:14:43.082Z,79.69
2022-09-03T12:15:43.104Z,79.49
2022-09-03T12:16:43.093Z,79.03
2022-09-03T12:17:43.038Z,79.63
2022-09-03T12:18:43.024Z,79.86
2022-09-03T12:19:43.022Z,80.35
2022-09-03T12:20:43.013Z,80.88
2022-09-03T12:21:43.431Z,81.87
2022-09-03T12:22:42.997Z,82.64
2022-09-03T12:23:42.969Z,82.38
2022-09-03T12:24:42.952Z,83.83
2022-09-03T12:25:42.951Z,84.57
2022-09-03T12:26:42.923Z,86.88
2022-09-03T12:27:43.051Z,86.93
2022-09-03T12:28:44.411Z,87.93
2022-09-03T12:29:42.902Z,87.98
2022-09-03T12:30:42.914Z,89.39
2022-09-03T12:31:43.291Z,90.03
2022-09-03T12:32:42.859Z,90.03
2022-09-03T12:33:42.837Z,90.98
2022-09-03T12:34:42.845Z,90.98
2022-09-03T12:35:59.170Z,91.08
2022-09-03T12:36:44.251Z,91.69
2022-09-03T12:38:08.102Z,92.63
2022-09-03T12:39:07.993Z,93.04
2022-09-03T12:40:07.705Z,92.83
2022-09-03T12:41:43.837Z,93.34
2022-09-03T12:42:42.720Z,93.18
2022-09-03T12:43:47.612Z,93.08
2022-09-03T12:44:43.712Z,94.09
2022-09-03T12:46:10.424Z,94.59
2022-09-03T12:46:43.724Z,95.10
2022-09-03T12:47:42.688Z,96.05
2022-09-03T12:48:43.975Z,96.45
2022-09-03T12:49:42.763Z,96.45
2022-09-03T12:50:49.471Z,96.66
2022-09-03T12:51:49.255Z,96.66
2022-09-03T12:52:43.600Z,96.76
2022-09-03T12:53:42.979Z,96.10
2022-09-03T12:54:42.679Z,96.20
2022-09-03T12:55:42.645Z,96.20